createdAt,value
2018-11-21T00:01:26.531Z,2.40
2018-11-21T00:03:55.024Z,2.40
2018-11-21T00:06:23.442Z,2.40
2018-11-21T00:08:51.996Z,2.40
2018-11-21T00:11:20.469Z,2.30
2018-11-21T00:13:48.889Z,2.30
2018-11-21T00:16:17.383Z,2.40
2018-11-21T00:18:45.836Z,2.30
2018-11-21T00:21:14.258Z,2.30
2018-11-21T00:23:42.740Z,2.30
2018-11-21T00:26:11.528Z,2.30
2018-11-21T00:28:39.981Z,2.30
2018-11-21T00:31:09.151Z,2.20
2018-11-21T00:33:37.568Z,2.30
2018-11-21T00:36:06.048Z,2.30
2018-11-21T00:38:34.486Z,2.30
2018-11-21T00:41:03.260Z,2.40
2018-11-21T00:43:31.709Z,2.30
2018-11-21T00:46:00.122Z,2.30
2018-11-21T00:48:28.581Z,2.30
2018-11-21T00:50:57.039Z,2.30
2018-11-21T00:53:25.804Z,2.20
2018-11-21T00:55:54.295Z,2.30
2018-11-21T00:58:22.776Z,2.20
2018-11-21T01:00:51.190Z,2.30
2018-11-21T01:03:19.655Z,2.30
2018-11-21T01:05:48.272Z,2.30
2018-11-21T01:08:16.773Z,2.30
2018-11-21T01:10:45.282Z,2.20
2018-11-21T01:13:13.789Z,2.20
2018-11-21T01:15:42.579Z,2.20
2018-11-21T01:18:11.589Z,2.20
2018-11-21T01:20:40.006Z,2.30
2018-11-21T01:23:08.487Z,2.30
2018-11-21T01:25:36.928Z,2.20
2018-11-21T01:28:05.358Z,2.20
2018-11-21T01:30:33.841Z,2.10
2018-11-21T01:33:02.272Z,2.10
2018-11-21T01:35:31.113Z,2.10
2018-11-21T01:37:59.970Z,2.10
2018-11-21T01:40:28.385Z,2.20
2018-11-21T01:42:56.858Z,2.20
2018-11-21T01:45:25.356Z,2.10
2018-11-21T01:47:53.798Z,2.20
2018-11-21T01:50:22.564Z,2.10
2018-11-21T01:52:50.983Z,2.00
2018-11-21T01:55:19.884Z,2.00
2018-11-21T01:57:48.396Z,2.10
2018-11-21T02:00:16.818Z,2.10
2018-11-21T02:02:45.306Z,2.10
2018-11-21T02:05:13.734Z,2.00
2018-11-21T02:07:42.178Z,2.00
2018-11-21T02:10:10.649Z,2.00
2018-11-21T02:12:39.092Z,2.00
2018-11-21T02:15:07.704Z,2.10
2018-11-21T02:17:36.196Z,2.00
2018-11-21T02:20:05.033Z,2.00
2018-11-21T02:22:33.571Z,2.00
2018-11-21T02:25:02.043Z,2.00
2018-11-21T02:27:30.541Z,2.00
2018-11-21T02:29:59.050Z,2.00
2018-11-21T02:32:27.954Z,1.90
2018-11-21T02:34:56.470Z,1.90
2018-11-21T02:37:25.345Z,1.90
2018-11-21T02:39:54.199Z,2.00
2018-11-21T02:42:22.725Z,2.00
2018-11-21T02:44:51.189Z,2.00
2018-11-21T02:47:19.722Z,2.00
2018-11-21T02:49:48.253Z,2.00
2018-11-21T02:52:16.747Z,1.90
2018-11-21T02:54:45.290Z,1.90
2018-11-21T02:57:30.813Z,2.00
2018-11-21T03:00:07.738Z,2.00
2018-11-21T03:02:36.285Z,2.00
2018-11-21T03:05:05.095Z,1.90
2018-11-21T03:07:33.603Z,1.90
2018-11-21T03:10:02.108Z,1.90
2018-11-21T03:12:31.900Z,1.80
2018-11-21T03:15:00.434Z,1.80
2018-11-21T03:17:28.926Z,1.70
2018-11-21T03:19:57.403Z,1.80
2018-11-21T03:22:26.059Z,1.80
2018-11-21T03:24:54.517Z,1.80
2018-11-21T03:27:23.381Z,1.80
2018-11-21T03:29:52.284Z,1.80
2018-11-21T03:32:20.778Z,1.80
2018-11-21T03:34:49.289Z,1.80
2018-11-21T03:37:17.886Z,1.80
2018-11-21T03:39:47.141Z,1.80
2018-11-21T03:42:15.641Z,1.90
2018-11-21T03:44:44.158Z,1.80
2018-11-21T03:47:12.644Z,1.80
2018-11-21T03:49:41.532Z,1.80
2018-11-21T03:52:10.025Z,1.80
2018-11-21T03:54:38.539Z,1.80
2018-11-21T03:58:03.202Z,1.80
2018-11-21T04:00:31.667Z,1.80
2018-11-21T04:03:00.166Z,1.80
2018-11-21T04:05:28.705Z,1.80
2018-11-21T04:07:57.100Z,1.80
2018-11-21T04:10:25.594Z,1.90
2018-11-21T04:12:54.030Z,1.80
2018-11-21T04:15:22.500Z,1.80
2018-11-21T04:17:50.971Z,1.80
2018-11-21T04:20:19.730Z,1.70
2018-11-21T04:22:48.179Z,1.80
2018-11-21T04:25:16.624Z,1.80
2018-11-21T04:27:45.067Z,1.70
2018-11-21T04:30:13.998Z,1.80
2018-11-21T04:32:42.953Z,1.90
2018-11-21T04:35:11.411Z,2.00
2018-11-21T04:37:40.306Z,1.80
2018-11-21T04:40:08.740Z,1.90
2018-11-21T04:42:37.813Z,1.80
2018-11-21T04:45:07.635Z,1.80
2018-11-21T04:47:36.086Z,1.80
2018-11-21T04:50:05.242Z,1.80
2018-11-21T04:52:33.845Z,1.80
2018-11-21T04:55:02.627Z,1.80
2018-11-21T04:57:31.065Z,1.80
2018-11-21T05:00:00.224Z,1.80
2018-11-21T05:02:28.777Z,1.80
2018-11-21T05:04:57.198Z,1.80
2018-11-21T05:07:25.904Z,1.70
2018-11-21T05:09:54.368Z,1.80
2018-11-21T05:12:22.810Z,1.80
2018-11-21T05:14:51.262Z,1.80
2018-11-21T05:17:19.727Z,1.70
2018-11-21T05:19:48.173Z,1.70
2018-11-21T05:22:16.644Z,1.70
2018-11-21T05:24:45.440Z,1.70
2018-11-21T05:27:13.896Z,1.70
2018-11-21T05:29:42.383Z,1.70
2018-11-21T05:32:11.185Z,1.70
2018-11-21T05:34:40.003Z,1.70
2018-11-21T05:37:08.898Z,1.70
2018-11-21T05:39:37.329Z,1.70
2018-11-21T05:42:05.947Z,1.60
2018-11-21T05:44:34.392Z,1.70
2018-11-21T05:47:02.840Z,1.70
2018-11-21T05:49:31.703Z,1.60
2018-11-21T05:52:00.130Z,1.60
2018-11-21T05:54:28.659Z,1.60
2018-11-21T05:56:57.146Z,1.70
2018-11-21T05:59:25.562Z,1.60
2018-11-21T06:01:54.033Z,1.60
2018-11-21T06:04:22.453Z,1.60
2018-11-21T06:06:50.905Z,1.60
2018-11-21T06:09:19.352Z,1.60
2018-11-21T06:11:48.186Z,1.60
2018-11-21T06:14:16.648Z,1.60
2018-11-21T06:16:45.385Z,1.70
2018-11-21T06:19:14.204Z,1.70
2018-11-21T06:21:42.684Z,1.60
2018-11-21T06:24:11.105Z,1.60
2018-11-21T06:26:39.549Z,1.60
2018-11-21T06:29:08.024Z,1.60
2018-11-21T06:31:36.449Z,1.50
2018-11-21T06:34:04.913Z,1.60
2018-11-21T06:36:33.425Z,1.60
2018-11-21T06:39:02.289Z,1.60
2018-11-21T06:41:30.814Z,1.60
2018-11-21T06:43:59.250Z,1.50
2018-11-21T06:46:27.786Z,1.50
2018-11-21T06:48:56.239Z,1.50
2018-11-21T06:51:25.072Z,1.50
2018-11-21T06:53:53.609Z,1.40
2018-11-21T06:56:22.140Z,1.50
2018-11-21T06:58:55.098Z,1.50
2018-11-21T07:01:19.028Z,1.50
2018-11-21T07:03:47.463Z,1.50
2018-11-21T07:06:15.965Z,1.60
2018-11-21T07:08:44.604Z,1.60
2018-11-21T07:11:13.052Z,1.60
2018-11-21T07:13:41.519Z,1.70
2018-11-21T07:16:10.363Z,1.70
2018-11-21T07:18:38.859Z,1.70
2018-11-21T07:21:07.313Z,1.70
2018-11-21T07:23:36.067Z,1.60
2018-11-21T07:26:04.894Z,1.60
2018-11-21T07:28:33.367Z,1.60
2018-11-21T07:31:01.804Z,1.60
2018-11-21T07:33:30.290Z,1.70
2018-11-21T07:35:58.752Z,1.70
2018-11-21T07:38:27.361Z,1.60
2018-11-21T07:40:55.910Z,1.60
2018-11-21T07:43:24.338Z,1.60
2018-11-21T07:45:52.780Z,1.60
2018-11-21T07:48:21.260Z,1.60
2018-11-21T07:50:49.668Z,1.60
2018-11-21T07:53:18.235Z,1.60
2018-11-21T07:55:46.678Z,1.60
2018-11-21T07:58:20.030Z,1.60
2018-11-21T08:01:24.297Z,1.60
2018-11-21T08:03:57.633Z,1.70
2018-11-21T08:06:47.941Z,1.70
2018-11-21T08:09:41.477Z,1.80
2018-11-21T08:12:34.827Z,1.80
2018-11-21T08:15:40.643Z,1.80
2018-11-21T08:18:28.563Z,1.80
2018-11-21T08:21:16.156Z,1.80
2018-11-21T08:24:09.803Z,1.80
2018-11-21T08:26:59.984Z,1.80
2018-11-21T08:29:28.445Z,1.80
2018-11-21T08:31:56.919Z,1.80
2018-11-21T08:34:25.339Z,1.80
2018-11-21T08:36:53.812Z,1.80
2018-11-21T08:39:22.589Z,1.80
2018-11-21T08:41:51.422Z,1.80
2018-11-21T08:44:19.868Z,1.80
2018-11-21T08:46:48.276Z,1.80
2018-11-21T08:49:16.715Z,1.80
2018-11-21T08:51:45.185Z,1.90
2018-11-21T08:54:13.622Z,1.90
2018-11-21T08:56:42.079Z,2.00
2018-11-21T08:59:10.899Z,2.10
2018-11-21T09:01:39.331Z,2.00
2018-11-21T09:04:08.144Z,2.00
2018-11-21T09:06:36.580Z,1.90
2018-11-21T09:09:08.442Z,2.00
2018-11-21T09:11:36.887Z,2.00
2018-11-21T09:14:05.365Z,2.00
2018-11-21T09:16:33.891Z,2.00
2018-11-21T09:19:02.387Z,2.00
2018-11-21T09:21:31.172Z,2.00
2018-11-21T09:23:59.631Z,2.00
2018-11-21T09:26:28.067Z,2.00
2018-11-21T09:28:56.495Z,2.10
2018-11-21T09:31:25.304Z,2.10
2018-11-21T09:33:54.104Z,2.10
2018-11-21T09:36:22.613Z,2.10
2018-11-21T09:38:51.031Z,2.10
2018-11-21T09:41:19.437Z,2.10
2018-11-21T09:43:47.982Z,2.10
2018-11-21T09:46:17.358Z,2.10
2018-11-21T09:48:44.846Z,2.20
2018-11-21T09:51:13.317Z,2.20
2018-11-21T09:53:41.810Z,2.10
2018-11-21T09:56:10.611Z,2.20
2018-11-21T09:58:39.065Z,2.20
2018-11-21T10:01:44.177Z,2.20
2018-11-21T10:04:12.621Z,2.10
2018-11-21T10:06:42.752Z,2.10
2018-11-21T10:09:22.860Z,2.10
2018-11-21T10:11:51.292Z,2.10
2018-11-21T10:14:20.144Z,2.10
2018-11-21T10:16:48.871Z,2.00
2018-11-21T10:19:17.334Z,2.00
2018-11-21T10:21:45.802Z,2.10
2018-11-21T10:24:14.216Z,2.10
2018-11-21T10:26:43.057Z,2.20
2018-11-21T10:29:11.597Z,2.10
2018-11-21T10:31:40.006Z,2.10
2018-11-21T10:34:08.840Z,2.10
2018-11-21T10:36:37.269Z,2.20
2018-11-21T10:39:08.453Z,2.20
2018-11-21T10:41:36.942Z,2.20
2018-11-21T10:44:05.758Z,2.10
2018-11-21T10:46:34.567Z,2.10
2018-11-21T10:49:03.010Z,2.20
2018-11-21T10:51:31.441Z,2.20
2018-11-21T10:53:59.909Z,2.20
2018-11-21T10:56:28.387Z,2.20
2018-11-21T10:58:56.837Z,2.20
2018-11-21T11:01:42.987Z,2.20
2018-11-21T11:04:30.843Z,2.20
2018-11-21T11:07:21.422Z,2.30
2018-11-21T11:10:07.799Z,2.20
2018-11-21T11:13:01.227Z,2.20
2018-11-21T11:15:47.792Z,2.20
2018-11-21T11:18:38.190Z,2.10
2018-11-21T11:21:40.727Z,2.20
2018-11-21T11:24:27.917Z,2.20
2018-11-21T11:27:14.378Z,2.20
2018-11-21T11:30:01.977Z,2.20
2018-11-21T11:32:48.399Z,2.20
2018-11-21T11:35:54.117Z,2.10
2018-11-21T11:38:54.145Z,2.20
2018-11-21T11:41:44.620Z,2.20
2018-11-21T11:44:32.630Z,2.20
2018-11-21T11:47:35.207Z,2.10
2018-11-21T11:50:18.669Z,2.10
2018-11-21T11:53:09.193Z,2.10
2018-11-21T11:55:55.639Z,2.20
2018-11-21T11:58:34.269Z,2.20
2018-11-21T12:01:24.659Z,2.20
2018-11-21T12:04:10.941Z,2.20
2018-11-21T12:06:57.371Z,2.20
2018-11-21T12:09:43.670Z,2.20
2018-11-21T12:12:30.076Z,2.20
2018-11-21T12:15:16.623Z,2.10
2018-11-21T12:18:02.689Z,2.20
2018-11-21T12:20:49.374Z,2.20
2018-11-21T12:23:35.803Z,2.30
2018-11-21T12:26:25.842Z,2.20
2018-11-21T12:29:12.258Z,2.10
2018-11-21T12:32:09.395Z,2.20
2018-11-21T12:35:12.055Z,2.10
2018-11-21T12:37:58.078Z,2.10
2018-11-21T12:40:44.586Z,2.10
2018-11-21T12:43:30.761Z,2.10
2018-11-21T12:46:17.240Z,2.10
2018-11-21T12:48:58.556Z,2.10
2018-11-21T12:51:48.980Z,2.10
2018-11-21T12:54:54.957Z,2.20
2018-11-21T12:57:41.348Z,2.10
2018-11-21T13:00:34.729Z,2.20
2018-11-21T13:03:31.122Z,2.10
2018-11-21T13:06:18.677Z,2.10
2018-11-21T13:08:53.600Z,2.10
2018-11-21T13:11:50.191Z,2.00
2018-11-21T13:14:39.378Z,2.00
2018-11-21T13:17:35.389Z,2.00
2018-11-21T13:20:22.971Z,2.10
2018-11-21T13:23:09.817Z,2.20
2018-11-21T13:26:16.102Z,2.10
2018-11-21T13:29:02.584Z,2.10
2018-11-21T13:32:03.044Z,2.10
2018-11-21T13:34:50.692Z,2.10
2018-11-21T13:37:49.565Z,2.10
2018-11-21T13:40:42.932Z,2.10
2018-11-21T13:43:33.388Z,2.10
2018-11-21T13:46:23.946Z,2.10
2018-11-21T13:49:11.877Z,2.10
2018-11-21T13:51:58.220Z,2.10
2018-11-21T13:54:41.104Z,2.10
2018-11-21T13:57:09.540Z,2.10
2018-11-21T13:59:38.400Z,2.10
2018-11-21T14:02:07.024Z,2.10
2018-11-21T14:04:35.711Z,2.10
2018-11-21T14:07:04.188Z,2.20
2018-11-21T14:09:32.627Z,2.10
2018-11-21T14:12:01.045Z,2.10
2018-11-21T14:14:29.518Z,2.10
2018-11-21T14:16:57.982Z,2.10
2018-11-21T14:19:26.414Z,2.10
2018-11-21T14:21:55.911Z,2.10
2018-11-21T14:24:23.654Z,2.20
2018-11-21T14:26:52.154Z,2.10
2018-11-21T14:29:20.603Z,2.10
2018-11-21T14:31:49.047Z,2.10
2018-11-21T14:34:17.575Z,2.10
2018-11-21T14:36:46.021Z,2.00
2018-11-21T14:39:15.145Z,2.10
2018-11-21T14:41:44.668Z,2.10
2018-11-21T14:44:13.799Z,2.10
2018-11-21T14:46:44.036Z,2.10
2018-11-21T14:49:12.470Z,2.10
2018-11-21T14:51:40.899Z,2.10
2018-11-21T14:54:09.382Z,2.00
2018-11-21T14:56:38.174Z,2.00
2018-11-21T14:59:06.684Z,2.00
2018-11-21T15:01:35.271Z,2.00
2018-11-21T15:04:03.710Z,2.00
2018-11-21T15:06:32.165Z,2.00
2018-11-21T15:09:00.661Z,2.00
2018-11-21T15:11:29.083Z,1.90
2018-11-21T15:13:57.959Z,1.90
2018-11-21T15:16:26.739Z,1.90
2018-11-21T15:18:55.285Z,1.90
2018-11-21T15:21:24.752Z,1.90
2018-11-21T15:23:53.187Z,2.00
2018-11-21T15:26:21.658Z,1.90
2018-11-21T15:28:50.493Z,2.00
2018-11-21T15:31:19.054Z,2.00
2018-11-21T15:33:47.540Z,1.90
2018-11-21T15:36:15.969Z,2.00
2018-11-21T15:38:44.774Z,2.00
2018-11-21T15:41:13.272Z,2.10
2018-11-21T15:43:41.693Z,2.00
2018-11-21T15:46:10.164Z,2.00
2018-11-21T15:48:38.602Z,1.90
2018-11-21T15:51:07.094Z,1.90
2018-11-21T15:53:35.532Z,1.90
2018-11-21T15:56:04.019Z,1.90
2018-11-21T15:58:32.798Z,1.90
2018-11-21T16:01:01.242Z,1.80
2018-11-21T16:03:30.038Z,1.90
2018-11-21T16:05:58.463Z,1.80
2018-11-21T16:08:27.233Z,1.80
2018-11-21T16:10:55.705Z,1.80
2018-11-21T16:13:24.133Z,1.80
2018-11-21T16:15:53.869Z,1.80
2018-11-21T16:18:24.106Z,1.80
2018-11-21T16:20:52.936Z,1.70
2018-11-21T16:23:21.431Z,1.70
2018-11-21T16:25:50.381Z,1.70
2018-11-21T16:28:18.802Z,1.70
2018-11-21T16:30:47.607Z,1.70
2018-11-21T16:33:16.056Z,1.70
2018-11-21T16:35:44.522Z,1.60
2018-11-21T16:38:12.968Z,1.70
2018-11-21T16:40:41.382Z,1.70
2018-11-21T16:43:09.924Z,1.70
2018-11-21T16:45:41.163Z,1.70
2018-11-21T16:48:09.600Z,1.80
2018-11-21T16:50:38.073Z,1.80
2018-11-21T16:53:06.566Z,1.70
2018-11-21T16:55:35.111Z,1.80
2018-11-21T16:58:03.872Z,1.70
2018-11-21T17:00:32.652Z,1.70
2018-11-21T17:03:01.464Z,1.70
2018-11-21T17:05:30.074Z,1.70
2018-11-21T17:07:58.516Z,1.60
2018-11-21T17:10:28.534Z,1.60
2018-11-21T17:12:56.957Z,1.60
2018-11-21T17:15:26.809Z,1.60
2018-11-21T17:17:55.288Z,1.60
2018-11-21T17:20:25.496Z,1.60
2018-11-21T17:22:55.220Z,1.60
2018-11-21T17:25:25.544Z,1.60
